Time;durP1;ratioP1;P1;durP2;ratioP2;P2;SDS_P1;SDS_P2;PMS_P1;PMS_P2;Temp;Humidity;BMP_temperature;BMP_pressure;BME280_temperature;BME280_humidity;BME280_pressure;Samples;Min_cycle;Max_cycle;Signal;HPM_P1;HPM_P2
2023/12/17 00:00:17;;;;;;;;;;;;;;;20.11;47.25;102840.56;2096612;28;6094;-64
2023/12/17 00:01:18;;;;;;;;;;;;;;;20.11;47.50;102839.81;2101961;28;1979;-64
2023/12/17 00:02:20;;;;;;;;;;;;;;;20.11;47.26;102849.19;2102338;28;1718;-64
2023/12/17 00:03:21;;;;;;;;;;;;;;;20.11;47.31;102848.44;2100665;28;1965;-64
2023/12/17 00:04:23;;;;;;;;;;;;;;;20.11;47.21;102851.31;2099481;28;1801;-64
2023/12/17 00:05:24;;;;;;;;;;;;;;;19.99;47.47;102851.88;2100764;28;1902;-64
2023/12/17 00:06:26;;;;;;;;;;;;;;;19.94;47.43;102850.03;2099466;28;1800;-64
2023/12/17 00:07:27;;;;;;;;;;;;;;;19.92;47.69;102849.88;2098002;28;1863;-64
2023/12/17 00:08:29;;;;;;;;;;;;;;;19.92;47.62;102852.75;2099470;28;1948;-64
2023/12/17 00:09:30;;;;;;;;;;;;;;;19.92;47.74;102852.00;2097151;28;1899;-64
2023/12/17 00:10:32;;;;;;;;;;;;;;;20.01;47.51;102849.16;2095931;28;2020;-64
2023/12/17 00:11:40;;;;;;;;;;;;;;;20.01;47.52;102849.16;2100109;28;2230;-64
2023/12/17 00:12:42;;;;;;;;;;;;;;;20.04;47.48;102859.47;2093647;28;1873;-64
2023/12/17 00:13:43;;;;;;;;;;;;;;;19.97;47.62;102860.31;2103749;28;2017;-64
2023/12/17 00:14:45;;;;;;;;;;;;;;;19.93;47.63;102851.41;2103970;28;1808;-64
2023/12/17 00:15:47;;;;;;;;;;;;;;;19.91;47.77;102856.97;2098831;28;1560;-64
2023/12/17 00:16:48;;;;;;;;;;;;;;;19.90;47.74;102854.69;2104651;28;1949;-64
2023/12/17 00:17:50;;;;;;;;;;;;;;;19.89;47.73;102851.06;2103046;28;1929;-64
2023/12/17 00:18:51;;;;;;;;;;;;;;;19.91;47.84;102851.22;2101887;28;1992;-64
2023/12/17 00:19:53;;;;;;;;;;;;;;;19.92;47.76;102852.75;2102073;28;1847;-64
2023/12/17 00:20:54;;;;;;;;;;;;;;;20.02;47.37;102856.44;2098985;28;2033;-64
2023/12/17 00:21:56;;;;;;;;;;;;;;;20.04;47.32;102859.47;2102991;28;1890;-64
2023/12/17 00:22:57;;;;;;;;;;;;;;;20.05;47.32;102865.97;2099539;28;1772;-75
2023/12/17 00:23:59;;;;;;;;;;;;;;;20.05;47.31;102860.97;2103837;28;1950;-75
2023/12/17 00:25:00;;;;;;;;;;;;;;;20.05;47.49;102860.97;2101638;28;1910;-75
2023/12/17 00:26:01;;;;;;;;;;;;;;;20.07;47.45;102874.78;2098897;28;1954;-64
2023/12/17 00:27:03;;;;;;;;;;;;;;;20.06;47.29;102870.38;2102905;28;1582;-64
2023/12/17 00:28:04;;;;;;;;;;;;;;;20.05;47.32;102872.50;2099088;28;1843;-64
2023/12/17 00:29:06;;;;;;;;;;;;;;;20.05;47.29;102878.25;2101863;28;2001;-65
2023/12/17 00:30:07;;;;;;;;;;;;;;;20.05;47.25;102878.25;2097533;28;6000;-64
2023/12/17 00:31:09;;;;;;;;;;;;;;;20.05;47.20;102877.50;2103227;28;1624;-64
2023/12/17 00:32:10;;;;;;;;;;;;;;;20.06;47.46;102876.88;2102213;28;2028;-64
2023/12/17 00:33:12;;;;;;;;;;;;;;;20.05;47.33;102863.84;2100035;28;1956;-64
2023/12/17 00:34:13;;;;;;;;;;;;;;;20.05;47.29;102872.50;2101991;28;1931;-64
2023/12/17 00:35:15;;;;;;;;;;;;;;;20.04;47.30;102856.59;2098129;28;1950;-64
2023/12/17 00:36:16;;;;;;;;;;;;;;;20.04;47.40;102868.09;2102315;28;1909;-65
2023/12/17 00:37:18;;;;;;;;;;;;;;;20.04;47.30;102862.34;2103801;28;2037;-65
2023/12/17 00:38:19;;;;;;;;;;;;;;;20.03;47.26;102852.19;2099996;28;1780;-64
2023/12/17 00:39:20;;;;;;;;;;;;;;;20.04;47.28;102859.47;2102213;28;1859;-64
2023/12/17 00:40:22;;;;;;;;;;;;;;;20.04;47.17;102853.72;2101749;28;1509;-64
2023/12/17 00:41:23;;;;;;;;;;;;;;;20.03;47.18;102840.69;2101222;28;1958;-64
2023/12/17 00:42:25;;;;;;;;;;;;;;;20.03;47.30;102842.81;2098537;28;1950;-64
2023/12/17 00:43:26;;;;;;;;;;;;;;;20.04;47.46;102836.47;2100771;28;1566;-65
2023/12/17 00:44:28;;;;;;;;;;;;;;;20.04;47.37;102842.22;2098982;28;2131;-64
2023/12/17 00:45:30;;;;;;;;;;;;;;;20.04;47.20;102847.97;2101312;28;1664;-65
2023/12/17 00:46:31;;;;;;;;;;;;;;;20.02;47.34;102839.19;2103030;28;2242;-64
2023/12/17 00:47:33;;;;;;;;;;;;;;;20.02;47.35;102844.16;2101273;28;1953;-64
2023/12/17 00:48:34;;;;;;;;;;;;;;;20.02;47.33;102839.19;2103977;28;1593;-64
2023/12/17 00:49:36;;;;;;;;;;;;;;;20.01;47.41;102843.41;2097769;28;1976;-64
2023/12/17 00:50:37;;;;;;;;;;;;;;;20.01;47.49;102831.13;2101073;28;1963;-64
2023/12/17 00:51:39;;;;;;;;;;;;;;;20.00;47.28;102830.38;2101603;28;1768;-64
2023/12/17 00:52:40;;;;;;;;;;;;;;;20.00;47.32;102824.63;2098883;28;2012;-64
2023/12/17 00:53:41;;;;;;;;;;;;;;;20.01;47.44;102834.03;2101562;28;2120;-64
2023/12/17 00:54:43;;;;;;;;;;;;;;;20.01;47.46;102831.13;2100185;28;1982;-64
2023/12/17 00:55:44;;;;;;;;;;;;;;;20.01;47.37;102836.91;2099824;28;1938;-64
2023/12/17 00:56:46;;;;;;;;;;;;;;;20.00;47.54;102841.88;2104147;28;1985;-64
2023/12/17 00:57:47;;;;;;;;;;;;;;;19.99;47.33;102846.09;2100372;28;1944;-64
2023/12/17 00:58:49;;;;;;;;;;;;;;;20.00;47.43;102852.66;2105139;28;1672;-64
2023/12/17 00:59:50;;;;;;;;;;;;;;;19.99;47.17;102857.63;2102224;28;1993;-64
2023/12/17 01:00:51;;;;;;;;;;;;;;;20.00;47.25;102867.78;2099909;28;6124;-64
2023/12/17 01:01:56;;;;;;;;;;;;;;;19.99;47.37;102869.13;2099931;28;2017;-64
2023/12/17 01:02:58;;;;;;;;;;;;;;;19.99;47.33;102869.13;2103193;28;2175;-64
2023/12/17 01:03:59;;;;;;;;;;;;;;;19.98;47.33;102866.84;2102964;28;1918;-64
2023/12/17 01:05:00;;;;;;;;;;;;;;;19.97;47.57;102865.31;2102255;28;2057;-65
2023/12/17 01:06:02;;;;;;;;;;;;;;;19.97;47.44;102866.06;2103489;28;1558;-64
2023/12/17 01:07:03;;;;;;;;;;;;;;;19.97;47.53;102863.19;2101598;28;1975;-64
2023/12/17 01:08:05;;;;;;;;;;;;;;;19.98;47.55;102858.97;2098581;28;1960;-64
2023/12/17 01:09:06;;;;;;;;;;;;;;;19.97;47.56;102857.44;2099962;28;1578;-65
2023/12/17 01:10:08;;;;;;;;;;;;;;;19.96;47.51;102864.56;2098745;28;1870;-64
2023/12/17 01:11:09;;;;;;;;;;;;;;;19.96;47.45;102864.56;2098999;28;1646;-64
2023/12/17 01:12:10;;;;;;;;;;;;;;;19.96;47.31;102876.06;2101161;28;1963;-64
2023/12/17 01:13:12;;;;;;;;;;;;;;;19.95;47.31;102871.69;2100646;28;1856;-64
2023/12/17 01:14:13;;;;;;;;;;;;;;;19.96;47.38;102864.56;2100877;28;1906;-64
2023/12/17 01:15:15;;;;;;;;;;;;;;;19.95;47.40;102871.69;2101399;28;1962;-64
2023/12/17 01:16:16;;;;;;;;;;;;;;;19.96;47.40;102864.56;2103572;28;1535;-64
2023/12/17 01:17:18;;;;;;;;;;;;;;;19.95;47.46;102862.28;2099207;28;1955;-64
2023/12/17 01:18:19;;;;;;;;;;;;;;;19.94;47.39;102861.53;2102298;28;1589;-64
2023/12/17 01:19:20;;;;;;;;;;;;;;;19.94;47.55;102870.16;2100981;28;1631;-64
2023/12/17 01:20:22;;;;;;;;;;;;;;;19.94;47.58;102878.03;2101970;28;2113;-64
2023/12/17 01:21:23;;;;;;;;;;;;;;;19.95;47.47;102879.53;2100268;28;1605;-64
2023/12/17 01:22:25;;;;;;;;;;;;;;;19.95;47.52;102885.28;2101119;28;1934;-64
2023/12/17 01:23:27;;;;;;;;;;;;;;;19.94;47.47;102878.78;2102118;28;1736;-64
2023/12/17 01:24:28;;;;;;;;;;;;;;;19.94;47.35;102883.78;2097940;28;2021;-64
2023/12/17 01:25:29;;;;;;;;;;;;;;;19.86;47.64;102886.78;2100264;28;1827;-64
2023/12/17 01:26:31;;;;;;;;;;;;;;;19.81;47.87;102873.41;2101064;28;1542;-64
2023/12/17 01:27:32;;;;;;;;;;;;;;;19.83;47.68;102877.19;2100377;28;1879;-64
2023/12/17 01:28:34;;;;;;;;;;;;;;;19.89;47.56;102876.94;2102561;28;1606;-64
2023/12/17 01:29:35;;;;;;;;;;;;;;;19.90;47.55;102878.44;2102918;28;2028;-63
2023/12/17 01:30:37;;;;;;;;;;;;;;;19.92;47.28;102875.00;2103352;28;6001;-64
2023/12/17 01:31:38;;;;;;;;;;;;;;;19.92;47.33;102870.00;2101895;28;1546;-64
2023/12/17 01:32:40;;;;;;;;;;;;;;;19.92;47.30;102875.75;2104789;28;1934;-64
2023/12/17 01:33:41;;;;;;;;;;;;;;;19.93;47.32;102879.38;2104539;28;1636;-64
2023/12/17 01:34:43;;;;;;;;;;;;;;;19.91;47.44;102868.47;2100360;28;2074;-64
2023/12/17 01:35:44;;;;;;;;;;;;;;;19.92;47.43;102870.00;2099590;28;1597;-64
2023/12/17 01:36:46;;;;;;;;;;;;;;;19.92;47.48;102875.75;2100459;28;1926;-64
2023/12/17 01:37:47;;;;;;;;;;;;;;;19.92;47.37;102875.75;2100113;28;2056;-64
2023/12/17 01:38:48;;;;;;;;;;;;;;;19.92;47.44;102870.00;2101888;28;1962;-64
2023/12/17 01:39:50;;;;;;;;;;;;;;;19.92;47.28;102864.25;2100620;28;1954;-64
2023/12/17 01:40:51;;;;;;;;;;;;;;;19.91;47.37;102874.22;2100135;28;1958;-64
2023/12/17 01:41:53;;;;;;;;;;;;;;;19.92;47.37;102875.00;2101513;28;2021;-64
2023/12/17 01:42:55;;;;;;;;;;;;;;;19.91;47.47;102871.38;2101058;28;1981;-64
2023/12/17 01:43:56;;;;;;;;;;;;;;;19.90;47.36;102881.31;2102174;28;1894;-64
2023/12/17 01:44:58;;;;;;;;;;;;;;;19.90;47.35;102877.69;2098320;28;1989;-64
2023/12/17 01:45:59;;;;;;;;;;;;;;;19.91;47.52;102880.00;2102415;28;1616;-64
2023/12/17 01:47:01;;;;;;;;;;;;;;;19.91;47.41;102882.09;2099402;28;1646;-64
2023/12/17 01:48:02;;;;;;;;;;;;;;;19.89;47.50;102882.69;2100173;28;2047;-64
2023/12/17 01:49:04;;;;;;;;;;;;;;;19.90;47.43;102871.94;2101252;28;2001;-64
2023/12/17 01:50:06;;;;;;;;;;;;;;;19.89;47.50;102871.19;2099905;28;2438;-64
2023/12/17 01:51:08;;;;;;;;;;;;;;;19.89;47.33;102874.06;2099506;28;1898;-64
2023/12/17 01:52:09;;;;;;;;;;;;;;;19.90;47.53;102884.19;2096985;28;1930;-64
2023/12/17 01:53:11;;;;;;;;;;;;;;;19.90;47.36;102871.94;2099818;28;1929;-64
2023/12/17 01:54:12;;;;;;;;;;;;;;;19.90;47.41;102880.56;2099470;28;2021;-64
2023/12/17 01:55:13;;;;;;;;;;;;;;;19.90;47.40;102883.44;2100682;28;2045;-64
2023/12/17 01:56:15;;;;;;;;;;;;;;;19.89;47.30;102885.56;2103062;28;1880;-64
2023/12/17 01:57:16;;;;;;;;;;;;;;;19.90;47.40;102883.44;2097245;28;1981;-64
2023/12/17 01:58:18;;;;;;;;;;;;;;;19.89;47.33;102882.69;2101243;28;1959;-64
2023/12/17 01:59:19;;;;;;;;;;;;;;;19.88;47.31;102879.06;2099432;28;1989;-64
2023/12/17 02:00:21;;;;;;;;;;;;;;;19.89;47.41;102882.69;2101328;28;6280;-64
2023/12/17 02:01:22;;;;;;;;;;;;;;;19.89;47.52;102874.06;2102372;28;1789;-64
2023/12/17 02:02:24;;;;;;;;;;;;;;;19.89;47.31;102876.94;2087615;28;2126;-64
2023/12/17 02:03:25;;;;;;;;;;;;;;;19.88;47.58;102873.31;2096840;28;1620;-64
2023/12/17 02:04:27;;;;;;;;;;;;;;;19.88;47.40;102869.66;2102280;28;1993;-64
2023/12/17 02:05:30;;;;;;;;;;;;;;;19.88;47.50;102875.41;2100770;28;2107;-64
2023/12/17 02:06:32;;;;;;;;;;;;;;;19.88;47.37;102869.66;2099729;28;1601;-64
2023/12/17 02:07:34;;;;;;;;;;;;;;;19.88;47.51;102869.66;2096195;28;2091;-64
2023/12/17 02:08:35;;;;;;;;;;;;;;;19.88;47.46;102881.16;2098750;28;1993;-64
2023/12/17 02:09:37;;;;;;;;;;;;;;;19.87;47.30;102879.66;2100790;28;1788;-64
2023/12/17 02:10:38;;;;;;;;;;;;;;;19.87;47.38;102880.41;2099209;28;1606;-64
2023/12/17 02:11:40;;;;;;;;;;;;;;;19.86;47.24;102881.78;2100385;28;2002;-64
2023/12/17 02:12:41;;;;;;;;;;;;;;;19.88;47.22;102886.91;2101356;28;1794;-64
2023/12/17 02:13:42;;;;;;;;;;;;;;;19.87;47.31;102885.41;2102144;28;1570;-64
2023/12/17 02:14:44;;;;;;;;;;;;;;;19.87;47.36;102885.41;2098492;28;1912;-64
2023/12/17 02:15:45;;;;;;;;;;;;;;;19.86;47.37;102889.66;2094276;28;1697;-64
2023/12/17 02:16:47;;;;;;;;;;;;;;;19.86;47.31;102889.66;2093134;28;1731;-64
2023/12/17 02:17:48;;;;;;;;;;;;;;;19.86;47.29;102887.53;2099026;28;1945;-64
2023/12/17 02:18:50;;;;;;;;;;;;;;;19.86;47.24;102886.78;2101022;28;1966;-64
2023/12/17 02:19:51;;;;;;;;;;;;;;;19.86;47.44;102886.78;2100159;28;1803;-64
2023/12/17 02:20:53;;;;;;;;;;;;;;;19.85;47.42;102891.75;2101050;28;1522;-64
2023/12/17 02:21:55;;;;;;;;;;;;;;;19.85;47.44;102883.13;2100128;28;1923;-64
2023/12/17 02:22:56;;;;;;;;;;;;;;;19.86;47.42;102878.16;2100251;28;1863;-64
2023/12/17 02:23:57;;;;;;;;;;;;;;;19.86;47.19;102883.91;2100763;28;1907;-64
2023/12/17 02:24:59;;;;;;;;;;;;;;;19.85;47.33;102883.13;2098261;28;1919;-64
2023/12/17 02:26:03;;;;;;;;;;;;;;;19.85;47.24;102883.13;2102287;28;2066;-64
2023/12/17 02:27:04;;;;;;;;;;;;;;;19.85;47.29;102879.50;2098606;28;1645;-65
2023/12/17 02:28:06;;;;;;;;;;;;;;;19.86;47.11;102878.16;2101615;28;1636;-64
2023/12/17 02:29:07;;;;;;;;;;;;;;;19.85;47.34;102879.50;2095684;28;2042;-64
2023/12/17 02:30:09;;;;;;;;;;;;;;;19.86;47.40;102878.16;2096243;28;6074;-64
2023/12/17 02:31:10;;;;;;;;;;;;;;;19.85;47.38;102880.25;2100788;28;1788;-64
2023/12/17 02:32:11;;;;;;;;;;;;;;;19.84;47.02;102886.59;2098750;28;1973;-64
2023/12/17 02:33:13;;;;;;;;;;;;;;;19.85;47.33;102879.50;2098323;28;2164;-64
2023/12/17 02:34:15;;;;;;;;;;;;;;;19.85;47.35;102888.13;2101858;28;2017;-64
2023/12/17 02:35:17;;;;;;;;;;;;;;;19.85;47.18;102876.63;2101554;28;1966;-64
2023/12/17 02:36:18;;;;;;;;;;;;;;;19.85;47.17;102879.50;2099611;28;1957;-64
2023/12/17 02:37:19;;;;;;;;;;;;;;;19.86;47.32;102881.03;2100902;28;1988;-64
2023/12/17 02:38:21;;;;;;;;;;;;;;;19.84;47.37;102886.59;2099952;28;1537;-64
2023/12/17 02:39:22;;;;;;;;;;;;;;;19.84;47.19;102875.09;2099106;28;1870;-64
2023/12/17 02:40:24;;;;;;;;;;;;;;;19.83;47.21;102885.06;2098308;28;1491;-65
2023/12/17 02:41:25;;;;;;;;;;;;;;;19.84;47.11;102893.09;2098848;28;1954;-64
2023/12/17 02:42:27;;;;;;;;;;;;;;;19.83;47.20;102885.81;2100240;28;1656;-64
2023/12/17 02:43:28;;;;;;;;;;;;;;;19.83;47.23;102885.06;2099432;28;1970;-64
2023/12/17 02:44:30;;;;;;;;;;;;;;;19.83;47.37;102882.94;2098102;28;1946;-64
2023/12/17 02:45:31;;;;;;;;;;;;;;;19.83;47.30;102887.94;2098580;28;2128;-64
2023/12/17 02:46:32;;;;;;;;;;;;;;;19.83;47.26;102873.56;2099397;28;2041;-64
2023/12/17 02:47:34;;;;;;;;;;;;;;;19.82;47.30;102872.06;2101681;28;2010;-65
2023/12/17 02:48:35;;;;;;;;;;;;;;;19.82;47.30;102872.81;2098908;28;1933;-64
2023/12/17 02:49:37;;;;;;;;;;;;;;;19.82;47.29;102872.81;2102687;28;1933;-64
2023/12/17 02:50:39;;;;;;;;;;;;;;;19.82;47.29;102869.19;2098186;28;1859;-65
2023/12/17 02:51:40;;;;;;;;;;;;;;;19.82;47.21;102872.06;2103635;28;1527;-64
2023/12/17 02:52:42;;;;;;;;;;;;;;;19.82;47.10;102878.56;2100043;28;2003;-65
2023/12/17 02:53:43;;;;;;;;;;;;;;;19.82;47.13;102869.19;2098334;28;2021;-64
2023/12/17 02:54:44;;;;;;;;;;;;;;;19.82;47.21;102869.94;2101236;28;2116;-64
2023/12/17 02:55:46;;;;;;;;;;;;;;;19.82;47.11;102869.19;2100230;28;1863;-64
2023/12/17 02:56:47;;;;;;;;;;;;;;;19.81;47.18;102868.44;2099078;28;2143;-64
2023/12/17 02:57:49;;;;;;;;;;;;;;;19.81;47.14;102867.66;2098983;28;2131;-64
2023/12/17 02:58:50;;;;;;;;;;;;;;;19.82;46.91;102869.19;2102379;28;2008;-64
2023/12/17 02:59:52;;;;;;;;;;;;;;;19.83;47.09;102862.06;2100030;28;1879;-64
2023/12/17 03:00:53;;;;;;;;;;;;;;;19.81;47.07;102868.44;2100402;28;5986;-64
2023/12/17 03:01:55;;;;;;;;;;;;;;;19.81;47.08;102864.78;2103797;28;1582;-64
2023/12/17 03:02:56;;;;;;;;;;;;;;;19.81;47.25;102868.44;2101948;28;1906;-64
2023/12/17 03:03:58;;;;;;;;;;;;;;;19.81;47.31;102870.53;2099933;28;1841;-64
2023/12/17 03:04:59;;;;;;;;;;;;;;;19.82;47.08;102877.81;2099299;28;1958;-64
2023/12/17 03:06:01;;;;;;;;;;;;;;;19.81;47.26;102879.16;2100736;28;1935;-64
2023/12/17 03:07:02;;;;;;;;;;;;;;;19.82;47.10;102877.81;2099323;28;1545;-64
2023/12/17 03:08:04;;;;;;;;;;;;;;;19.81;47.28;102870.53;2099810;28;1989;-64
2023/12/17 03:09:05;;;;;;;;;;;;;;;19.81;47.01;102870.53;2097007;28;2122;-64
2023/12/17 03:10:07;;;;;;;;;;;;;;;19.80;47.24;102871.91;2099313;28;1899;-64
2023/12/17 03:11:08;;;;;;;;;;;;;;;19.80;47.10;102874.78;2100149;28;1537;-64
2023/12/17 03:12:10;;;;;;;;;;;;;;;19.80;47.13;102863.28;2102302;28;1722;-64
2023/12/17 03:13:11;;;;;;;;;;;;;;;19.81;47.09;102870.53;2102620;28;2261;-64
2023/12/17 03:14:12;;;;;;;;;;;;;;;19.80;47.10;102874.78;2100820;28;1637;-64
2023/12/17 03:15:14;;;;;;;;;;;;;;;19.80;47.06;102869.03;2099782;28;2083;-64
2023/12/17 03:16:15;;;;;;;;;;;;;;;19.79;47.21;102855.97;2102014;28;1910;-64
2023/12/17 03:17:17;;;;;;;;;;;;;;;19.80;47.32;102863.28;2100856;28;1959;-64
2023/12/17 03:18:18;;;;;;;;;;;;;;;19.80;47.12;102866.16;2098185;28;1978;-64
2023/12/17 03:19:20;;;;;;;;;;;;;;;19.79;47.13;102874.03;2100515;28;1554;-64
2023/12/17 03:20:22;;;;;;;;;;;;;;;19.79;47.06;102861.75;2100914;28;1929;-64
2023/12/17 03:21:23;;;;;;;;;;;;;;;19.79;47.09;102862.53;2099142;28;1930;-64
2023/12/17 03:22:25;;;;;;;;;;;;;;;19.79;47.32;102862.53;2101028;28;2112;-64
2023/12/17 03:23:26;;;;;;;;;;;;;;;19.79;47.10;102867.50;2101623;28;1997;-64
2023/12/17 03:24:27;;;;;;;;;;;;;;;19.78;47.13;102857.34;2098763;28;1934;-64
2023/12/17 03:25:29;;;;;;;;;;;;;;;19.78;47.29;102858.09;2100479;28;1697;-64
2023/12/17 03:26:30;;;;;;;;;;;;;;;19.78;47.26;102860.97;2098040;28;2114;-64
2023/12/17 03:27:32;;;;;;;;;;;;;;;19.80;47.16;102848.91;2099282;28;1728;-64
2023/12/17 03:28:33;;;;;;;;;;;;;;;19.78;47.13;102857.34;2101750;28;1550;-64
2023/12/17 03:29:35;;;;;;;;;;;;;;;19.78;47.24;102858.09;2102219;28;1606;-65
2023/12/17 03:30:36;;;;;;;;;;;;;;;19.77;47.14;102847.97;2100186;28;5960;-64
2023/12/17 03:31:38;;;;;;;;;;;;;;;19.79;47.30;102853.13;2098499;28;1676;-65
2023/12/17 03:32:39;;;;;;;;;;;;;;;19.78;47.13;102854.47;2097355;28;1723;-65
2023/12/17 03:33:41;;;;;;;;;;;;;;;19.78;46.97;102854.47;2099287;28;1849;-65
2023/12/17 03:34:42;;;;;;;;;;;;;;;19.78;47.17;102854.47;2099940;28;1579;-65
2023/12/17 03:35:44;;;;;;;;;;;;;;;19.78;47.07;102854.47;2097812;28;1914;-65
2023/12/17 03:36:45;;;;;;;;;;;;;;;19.77;47.10;102852.94;2099486;28;1994;-65
2023/12/17 03:37:47;;;;;;;;;;;;;;;19.75;47.10;102847.06;2098900;28;1954;-65
2023/12/17 03:38:48;;;;;;;;;;;;;;;19.71;47.24;102849.59;2099512;28;1914;-65
2023/12/17 03:39:50;;;;;;;;;;;;;;;19.76;47.11;102849.31;2097149;28;1933;-65
2023/12/17 03:40:52;;;;;;;;;;;;;;;19.78;47.07;102837.22;2098432;28;2192;-65
2023/12/17 03:41:53;;;;;;;;;;;;;;;19.78;47.00;102848.72;2096878;28;1776;-65
2023/12/17 03:42:55;;;;;;;;;;;;;;;19.76;47.14;102851.44;2097840;28;2157;-65
2023/12/17 03:43:57;;;;;;;;;;;;;;;19.80;46.91;102851.78;2100852;28;1503;-65
2023/12/17 03:44:58;;;;;;;;;;;;;;;19.80;46.99;102848.91;2101073;28;2005;-64
2023/12/17 03:45:59;;;;;;;;;;;;;;;19.79;46.95;102848.16;2099702;28;1793;-64
2023/12/17 03:47:01;;;;;;;;;;;;;;;19.81;46.97;102850.41;2098622;28;1978;-65
2023/12/17 03:48:02;;;;;;;;;;;;;;;19.81;47.01;102851.19;2100583;28;1902;-65
2023/12/17 03:49:04;;;;;;;;;;;;;;;19.83;47.19;102856.31;2102722;28;1806;-65
2023/12/17 03:50:05;;;;;;;;;;;;;;;19.82;46.99;102854.81;2100124;28;1898;-65
2023/12/17 03:51:07;;;;;;;;;;;;;;;19.83;46.90;102856.31;2102606;28;1913;-65
2023/12/17 03:52:08;;;;;;;;;;;;;;;19.84;46.91;102863.59;2101596;28;1854;-65
2023/12/17 03:53:10;;;;;;;;;;;;;;;19.84;47.11;102860.72;2102694;28;1853;-65
2023/12/17 03:54:12;;;;;;;;;;;;;;;19.82;47.27;102861.31;2103328;28;1776;-64
2023/12/17 03:55:13;;;;;;;;;;;;;;;19.83;47.12;102857.06;2101674;28;1955;-65
2023/12/17 03:56:15;;;;;;;;;;;;;;;19.85;47.28;102859.34;2101313;28;2000;-65
2023/12/17 03:57:17;;;;;;;;;;;;;;;19.86;47.18;102866.66;2099983;28;2177;-65
2023/12/17 03:58:18;;;;;;;;;;;;;;;19.86;47.06;102864.53;2101536;28;1985;-65
2023/12/17 03:59:19;;;;;;;;;;;;;;;19.86;47.16;102866.66;2102367;28;2239;-65
2023/12/17 04:00:21;;;;;;;;;;;;;;;19.87;47.17;102871.03;2100987;28;6068;-65
2023/12/17 04:01:23;;;;;;;;;;;;;;;19.84;47.21;102870.09;2100525;28;2036;-65
2023/12/17 04:02:25;;;;;;;;;;;;;;;19.86;47.21;102866.66;2099673;28;1839;-65
2023/12/17 04:03:26;;;;;;;;;;;;;;;19.86;47.24;102869.53;2103075;28;1934;-65
2023/12/17 04:04:28;;;;;;;;;;;;;;;19.87;47.27;102868.16;2102077;28;1947;-65
2023/12/17 04:05:29;;;;;;;;;;;;;;;19.86;47.19;102870.28;2102082;28;1928;-65
2023/12/17 04:06:31;;;;;;;;;;;;;;;19.87;47.21;102868.91;2103331;28;2301;-65
2023/12/17 04:07:32;;;;;;;;;;;;;;;19.87;47.26;102865.28;2100942;28;1930;-65
2023/12/17 04:08:34;;;;;;;;;;;;;;;19.87;47.37;102868.16;2100477;28;2131;-65
2023/12/17 04:09:35;;;;;;;;;;;;;;;19.86;47.28;102869.53;2103771;28;1630;-65
2023/12/17 04:10:36;;;;;;;;;;;;;;;19.86;47.29;102861.66;2099330;28;2067;-65
2023/12/17 04:11:38;;;;;;;;;;;;;;;19.86;47.27;102867.41;2102044;28;1603;-65
2023/12/17 04:12:40;;;;;;;;;;;;;;;19.86;47.42;102850.16;2099410;28;1927;-65
2023/12/17 04:13:41;;;;;;;;;;;;;;;19.87;47.48;102857.41;2101274;28;1535;-65
2023/12/17 04:14:43;;;;;;;;;;;;;;;19.88;47.38;102858.16;2103621;28;1584;-65
2023/12/17 04:15:44;;;;;;;;;;;;;;;19.88;47.50;102852.41;2101018;28;1902;-64
2023/12/17 04:16:45;;;;;;;;;;;;;;;19.87;47.62;102862.41;2099786;28;1660;-65
2023/12/17 04:17:48;;;;;;;;;;;;;;;19.88;47.53;102853.19;2099003;28;2085;-65
2023/12/17 04:18:50;;;;;;;;;;;;;;;19.90;47.45;102848.94;2102342;28;1914;-65
2023/12/17 04:19:52;;;;;;;;;;;;;;;19.90;47.56;102851.81;2101773;28;1581;-65
2023/12/17 04:20:53;;;;;;;;;;;;;;;19.91;47.61;102856.97;2102190;28;2037;-65
2023/12/17 04:21:55;;;;;;;;;;;;;;;19.90;47.52;102851.81;2100500;28;2050;-65
2023/12/17 04:22:56;;;;;;;;;;;;;;;19.91;47.56;102851.22;2102997;28;1946;-65
2023/12/17 04:23:58;;;;;;;;;;;;;;;19.92;47.59;102852.75;2103708;28;1522;-65
2023/12/17 04:24:59;;;;;;;;;;;;;;;19.92;47.63;102847.00;2103329;28;1785;-65
2023/12/17 04:26:00;;;;;;;;;;;;;;;19.92;47.66;102844.09;2101368;28;2284;-65
2023/12/17 04:27:02;;;;;;;;;;;;;;;19.91;47.75;102851.22;2101144;28;1914;-65
2023/12/17 04:28:03;;;;;;;;;;;;;;;19.93;47.74;102847.75;2100106;28;1633;-65
2023/12/17 04:29:05;;;;;;;;;;;;;;;19.94;47.84;102852.91;2104429;28;1527;-65
2023/12/17 04:30:06;;;;;;;;;;;;;;;19.94;47.71;102847.16;2101566;28;6118;-65
2023/12/17 04:31:08;;;;;;;;;;;;;;;19.93;47.88;102854.28;2099544;28;1752;-65
2023/12/17 04:32:09;;;;;;;;;;;;;;;19.94;47.69;102852.91;2097493;28;1941;-65
2023/12/17 04:33:11;;;;;;;;;;;;;;;19.94;47.74;102850.03;2103270;28;2056;-65
2023/12/17 04:34:12;;;;;;;;;;;;;;;19.93;47.64;102842.78;2103226;28;1952;-65
2023/12/17 04:35:14;;;;;;;;;;;;;;;19.93;47.67;102851.41;2100387;28;1844;-65
2023/12/17 04:36:16;;;;;;;;;;;;;;;19.93;47.57;102848.53;2100043;28;1965;-65
2023/12/17 04:37:17;;;;;;;;;;;;;;;19.93;47.74;102844.88;2102155;28;1891;-65
2023/12/17 04:38:19;;;;;;;;;;;;;;;19.93;47.58;102848.53;2100611;28;2030;-65
2023/12/17 04:39:20;;;;;;;;;;;;;;;19.94;47.57;102846.41;2101027;28;1910;-65
2023/12/17 04:40:21;;;;;;;;;;;;;;;19.93;47.66;102839.91;2099204;28;1998;-65
2023/12/17 04:41:23;;;;;;;;;;;;;;;19.92;47.65;102847.00;2100735;28;1545;-65
2023/12/17 04:42:24;;;;;;;;;;;;;;;19.93;47.75;102839.13;2100721;28;1925;-65
2023/12/17 04:43:26;;;;;;;;;;;;;;;19.92;47.57;102847.00;2100932;28;1470;-65
2023/12/17 04:44:27;;;;;;;;;;;;;;;19.92;47.53;102841.22;2102074;28;1634;-64
2023/12/17 04:45:29;;;;;;;;;;;;;;;19.91;47.65;102851.22;2098767;28;1816;-65
2023/12/17 04:46:30;;;;;;;;;;;;;;;19.91;47.71;102845.47;2103783;28;1685;-65
2023/12/17 04:47:32;;;;;;;;;;;;;;;19.92;47.75;102849.09;2102624;28;1677;-65
2023/12/17 04:48:33;;;;;;;;;;;;;;;19.92;47.66;102847.00;2098202;28;2199;-65
2023/12/17 04:49:35;;;;;;;;;;;;;;;19.91;47.73;102851.22;2098452;28;1720;-65
2023/12/17 04:50:36;;;;;;;;;;;;;;;19.91;47.58;102851.22;2098339;28;2032;-65
2023/12/17 04:51:38;;;;;;;;;;;;;;;19.92;47.60;102858.50;2103796;28;1962;-64
2023/12/17 04:52:39;;;;;;;;;;;;;;;19.92;47.75;102852.75;2100271;28;1862;-62
2023/12/17 04:53:40;;;;;;;;;;;;;;;19.93;47.74;102854.28;2099014;28;1805;-63
2023/12/17 04:54:42;;;;;;;;;;;;;;;19.94;47.69;102852.16;2101082;28;1997;-63
2023/12/17 04:55:43;;;;;;;;;;;;;;;19.94;47.97;102849.28;2100019;28;1902;-64
2023/12/17 04:56:45;;;;;;;;;;;;;;;19.94;47.83;102843.53;2103993;28;1724;-63
2023/12/17 04:57:46;;;;;;;;;;;;;;;19.95;47.65;102850.78;2102115;28;1943;-66
2023/12/17 04:58:48;;;;;;;;;;;;;;;19.95;47.86;102857.31;2098746;28;1950;-65
2023/12/17 04:59:49;;;;;;;;;;;;;;;19.95;47.90;102857.31;2101777;28;2145;-65
2023/12/17 05:00:50;;;;;;;;;;;;;;;19.97;47.85;102848.81;2101502;28;6246;-65
2023/12/17 05:01:52;;;;;;;;;;;;;;;19.97;47.79;102854.56;2102848;28;1598;-65
2023/12/17 05:02:53;;;;;;;;;;;;;;;19.96;47.73;102853.06;2101010;28;1367;-65
2023/12/17 05:03:55;;;;;;;;;;;;;;;19.98;47.61;102861.84;2102863;28;1923;-65
2023/12/17 05:04:56;;;;;;;;;;;;;;;19.98;47.77;102855.34;2103484;28;1514;-65
2023/12/17 05:05:58;;;;;;;;;;;;;;;19.99;48.01;102857.63;2101673;28;1558;-65
2023/12/17 05:06:59;;;;;;;;;;;;;;;19.99;48.05;102856.84;2101221;28;1922;-65
2023/12/17 05:08:01;;;;;;;;;;;;;;;19.99;47.93;102848.22;2100304;28;1950;-65
2023/12/17 05:09:02;;;;;;;;;;;;;;;19.98;47.93;102861.84;2102431;28;1815;-65
2023/12/17 05:10:04;;;;;;;;;;;;;;;20.00;47.86;102852.66;2098002;28;1807;-65
2023/12/17 05:11:06;;;;;;;;;;;;;;;19.98;47.91;102856.09;2099034;28;1788;-65
2023/12/17 05:12:08;;;;;;;;;;;;;;;19.98;47.82;102856.09;2098329;28;1859;-65
2023/12/17 05:13:09;;;;;;;;;;;;;;;19.98;47.93;102846.72;2102740;28;1535;-65
2023/12/17 05:14:10;;;;;;;;;;;;;;;19.98;47.73;102850.34;2101966;28;2060;-65
2023/12/17 05:15:12;;;;;;;;;;;;;;;19.98;47.74;102844.59;2103030;28;1899;-65
2023/12/17 05:16:13;;;;;;;;;;;;;;;19.98;47.74;102843.84;2098477;28;1966;-65
2023/12/17 05:17:15;;;;;;;;;;;;;;;19.97;47.76;102837.31;2100468;28;1894;-65
2023/12/17 05:18:16;;;;;;;;;;;;;;;19.90;48.06;102843.19;2101122;28;1972;-65
2023/12/17 05:19:18;;;;;;;;;;;;;;;19.86;48.06;102832.16;2100190;28;1990;-65
2023/12/17 05:20:19;;;;;;;;;;;;;;;19.94;48.17;102832.78;2103609;28;1561;-65